Time;durP1;ratioP1;P1;durP2;ratioP2;P2;SDS_P1;SDS_P2;PMS_P1;PMS_P2;Temp;Humidity;BMP_temperature;BMP_pressure;BME280_temperature;BME280_humidity;BME280_pressure;Samples;Min_cycle;Max_cycle;Signal;HPM_P1;HPM_P2
2023/01/09 00:01:49;;;;;;;73.90;41.20;;;;;;;2.36;83.46;99105.33;129757;1260;114842;-59
2023/01/09 00:04:51;;;;;;;;;;;;;;;2.34;83.37;99106.42;129835;1258;114749;-59
2023/01/09 00:07:53;;;;;;;89.50;43.30;;;;;;;2.32;83.26;99104.57;129889;1276;114718;-59
2023/01/09 00:10:55;;;;;;;87.30;44.60;;;;;;;2.31;83.11;99101.10;130035;1253;115558;-62
2023/01/09 00:13:58;;;;;;;86.60;43.40;;;;;;;2.28;82.94;99092.02;130005;1259;128533;-59
2023/01/09 00:17:01;;;;;;;90.10;46.50;;;;;;;2.26;83.43;99094.53;130059;1254;114743;-58
2023/01/09 00:20:05;;;;;;;81.20;43.20;;;;;;;2.25;83.38;99100.21;130035;1257;115064;-59
2023/01/09 00:23:07;;;;;;;82.20;43.40;;;;;;;2.25;83.64;99105.15;130083;1269;114850;-59
2023/01/09 00:26:13;;;;;;;81.70;45.20;;;;;;;2.26;83.79;99099.33;130106;1276;114987;-59
2023/01/09 00:29:15;;;;;;;80.80;44.10;;;;;;;2.25;83.55;99091.77;129832;1253;127697;-59
2023/01/09 00:32:19;;;;;;;82.10;46.00;;;;;;;2.25;83.75;99097.05;129958;1253;114812;-58
2023/01/09 00:35:23;;;;;;;81.90;44.60;;;;;;;2.25;83.39;99103.22;130065;1257;115297;-59
2023/01/09 00:38:26;;;;;;;59.60;30.80;;;;;;;2.23;83.40;99104.17;129975;1259;114629;-60
2023/01/09 00:41:36;;;;;;;83.30;46.80;;;;;;;2.20;82.97;99102.15;130075;1257;115073;-59
2023/01/09 00:44:43;;;;;;;88.60;46.40;;;;;;;2.17;82.95;99103.86;130103;1257;127651;-59
2023/01/09 00:47:49;;;;;;;80.80;44.10;;;;;;;2.12;83.10;99100.51;130054;1268;115219;-58
2023/01/09 00:51:00;;;;;;;92.80;46.40;;;;;;;2.09;83.15;99096.20;130136;1276;114793;-60
2023/01/09 00:54:03;;;;;;;76.90;41.20;;;;;;;2.05;83.06;99089.48;129898;1258;115486;-59
2023/01/09 00:57:06;;;;;;;80.20;43.70;;;;;;;2.02;83.31;99092.73;130003;1258;115324;-59
2023/01/09 01:00:09;;;;;;;85.10;44.40;;;;;;;2.00;83.40;99092.81;130181;1257;114831;-58
2023/01/09 01:03:12;;;;;;;84.10;46.20;;;;;;;1.99;83.42;99089.89;130173;1276;114783;-59
2023/01/09 01:09:39;;;;;;;87.60;46.70;;;;;;;1.98;83.61;99100.45;130139;1256;114709;-59
2023/01/09 01:12:43;;;;;;;80.80;45.30;;;;;;;1.98;83.66;99093.04;130132;1257;115141;-61
2023/01/09 01:15:45;;;;;;;84.10;46.10;;;;;;;1.99;83.72;99094.58;130186;1269;115346;-61
2023/01/09 01:18:48;;;;;;;78.20;43.70;;;;;;;2.00;83.70;99095.61;130122;1276;114761;-60
2023/01/09 01:21:51;;;;;;;90.60;45.40;;;;;;;2.00;83.79;99090.86;129969;1257;114693;-60
2023/01/09 01:24:53;;;;;;;82.40;46.70;;;;;;;2.01;84.03;99090.66;130178;1253;114665;-61
2023/01/09 01:27:55;;;;;;;93.80;50.00;;;;;;;2.03;84.09;99089.55;129736;1269;114799;-58
2023/01/09 01:30:58;;;;;;;91.20;49.70;;;;;;;2.03;84.13;99086.71;129893;1276;114700;-59
2023/01/09 01:34:00;;;;;;;87.90;48.70;;;;;;;2.04;84.17;99086.85;130002;1273;114727;-58
2023/01/09 01:37:04;;;;;;;95.90;51.60;;;;;;;2.04;84.11;99091.61;130203;1271;114708;-59
2023/01/09 01:40:08;;;;;;;86.60;47.80;;;;;;;2.04;84.00;99088.63;129956;1257;115489;-59
2023/01/09 01:43:11;;;;;;;91.70;50.20;;;;;;;2.03;84.14;99081.06;129705;1260;115175;-58
2023/01/09 01:46:16;;;;;;;94.00;50.40;;;;;;;2.02;83.88;99075.32;129915;1257;114700;-57
2023/01/09 01:49:19;;;;;;;95.30;49.60;;;;;;;2.02;84.05;99072.31;129939;1254;114699;-58
2023/01/09 01:52:23;;;;;;;94.50;48.60;;;;;;;2.01;83.88;99066.36;129792;1257;114697;-61
2023/01/09 01:55:25;;;;;;;99.90;51.70;;;;;;;2.01;84.33;99066.70;130027;1276;115164;-58
2023/01/09 01:58:28;;;;;;;97.70;49.70;;;;;;;2.02;84.06;99059.46;130005;1257;115369;-60
2023/01/09 02:01:31;;;;;;;99.80;51.30;;;;;;;2.02;84.25;99048.17;129934;1257;174239;-58
2023/01/09 02:04:38;;;;;;;99.90;50.00;;;;;;;2.04;84.16;99036.85;130008;1276;114779;-58
2023/01/09 02:07:40;;;;;;;94.30;48.70;;;;;;;2.05;84.27;99029.97;129959;1273;129819;-58
2023/01/09 02:10:43;;;;;;;93.30;49.50;;;;;;;2.05;84.23;99029.06;129862;1276;115155;-59
2023/01/09 02:13:46;;;;;;;101.50;52.20;;;;;;;2.05;84.13;99019.21;129961;1257;115228;-59
2023/01/09 02:17:01;;;;;;;94.40;51.90;;;;;;;2.04;84.53;99012.73;129986;1257;114783;-61
2023/01/09 02:20:49;;;;;;;96.80;50.00;;;;;;;2.02;84.64;99008.92;129689;1260;114861;-59
2023/01/09 02:24:07;;;;;;;89.10;47.10;;;;;;;2.00;84.49;99006.01;129398;1281;128435;-58
2023/01/09 02:28:02;;;;;;;88.00;49.50;;;;;;;1.97;84.28;99002.05;129271;1281;115238;-58
2023/01/09 02:31:12;;;;;;;85.30;44.50;;;;;;;1.94;84.48;98997.38;129275;1259;114784;-59
2023/01/09 02:34:26;;;;;;;83.30;47.20;;;;;;;1.91;84.20;98986.04;129271;1267;114903;-58
2023/01/09 02:38:09;;;;;;;81.20;43.10;;;;;;;1.91;84.24;98979.91;129361;1261;114947;-58
2023/01/09 02:41:38;;;;;;;80.40;42.60;;;;;;;1.89;84.45;98977.70;128939;1270;127731;-62
2023/01/09 02:44:41;;;;;;;81.20;43.20;;;;;;;1.87;84.46;98969.64;128981;1271;116359;-60
2023/01/09 02:47:45;;;;;;;76.90;43.10;;;;;;;1.86;84.45;98961.39;129058;1264;114778;-58
2023/01/09 02:51:17;;;;;;;77.30;43.20;;;;;;;1.86;84.48;98949.11;129036;1265;115380;-58
2023/01/09 02:54:19;;;;;;;79.40;44.00;;;;;;;1.85;84.50;98943.48;129013;1280;114900;-58
2023/01/09 02:57:28;;;;;;;79.80;44.10;;;;;;;1.85;84.69;98941.20;128939;1285;114850;-62
2023/01/09 03:00:55;;;;;;;76.80;42.40;;;;;;;1.85;84.61;98940.15;129202;1270;116458;-58
2023/01/09 03:04:19;;;;;;;86.10;46.60;;;;;;;1.85;84.37;98935.59;129423;1263;114892;-59
2023/01/09 03:07:31;;;;;;;78.80;44.00;;;;;;;1.85;84.57;98935.59;129439;1264;114903;-61
2023/01/09 03:11:00;;;;;;;80.00;44.40;;;;;;;1.85;84.56;98939.10;129192;1268;114890;-60
2023/01/09 03:14:10;;;;;;;69.00;39.10;;;;;;;1.84;84.49;98937.00;129341;1283;129797;-58
2023/01/09 03:17:15;;;;;;;65.90;40.10;;;;;;;1.84;84.67;98931.20;129504;1253;115157;-60
2023/01/09 03:20:20;;;;;;;73.20;39.60;;;;;;;1.83;84.62;98929.67;129857;1258;115280;-59
2023/01/09 03:23:23;;;;;;;73.50;40.80;;;;;;;1.82;84.51;98927.57;129760;1253;114915;-58
2023/01/09 03:26:27;;;;;;;69.70;38.90;;;;;;;1.82;84.68;98932.68;129900;1268;114798;-62
2023/01/09 03:29:30;;;;;;;65.60;37.00;;;;;;;1.82;84.60;98932.00;130035;1258;127843;-60
2023/01/09 03:32:33;;;;;;;68.10;38.10;;;;;;;1.81;84.71;98927.77;129967;1259;114845;-59
2023/01/09 03:35:36;;;;;;;64.10;35.90;;;;;;;1.81;84.72;98921.29;129876;1276;114790;-59
2023/01/09 03:38:38;;;;;;;65.70;35.40;;;;;;;1.81;84.66;98914.24;130015;1258;115070;-59
2023/01/09 03:41:41;;;;;;;66.10;36.50;;;;;;;1.80;84.64;98910.58;129962;1267;114787;-59
2023/01/09 03:44:43;;;;;;;69.70;36.60;;;;;;;1.81;84.69;98910.21;130119;1276;114799;-59
2023/01/09 03:47:46;;;;;;;69.00;35.70;;;;;;;1.80;84.74;98909.34;130076;1276;127990;-60
2023/01/09 03:50:50;;;;;;;64.00;34.10;;;;;;;1.79;84.93;98910.80;130151;1252;114811;-59
2023/01/09 03:53:52;;;;;;;67.70;35.80;;;;;;;1.78;84.77;98903.98;130136;1253;114749;-59
2023/01/09 03:56:54;;;;;;;61.50;33.30;;;;;;;1.78;85.02;98899.70;130034;1258;114805;-66
2023/01/09 03:59:57;;;;;;;58.80;32.70;;;;;;;1.77;84.79;98890.10;129901;1276;114744;-59
2023/01/09 04:03:00;;;;;;;62.70;33.80;;;;;;;1.76;84.92;98886.44;130162;1276;114690;-59
2023/01/09 04:06:03;;;;;;;65.80;34.40;;;;;;;1.73;84.96;98878.62;129964;1259;128594;-60
2023/01/09 04:09:05;;;;;;;67.20;33.80;;;;;;;1.72;84.72;98872.33;130012;1257;114687;-59
2023/01/09 04:12:08;;;;;;;65.90;34.80;;;;;;;1.72;84.88;98870.04;129970;1258;115151;-59
2023/01/09 04:15:10;;;;;;;69.00;34.30;;;;;;;1.71;84.95;98867.44;130255;1268;114775;-59
2023/01/09 04:18:13;;;;;;;63.40;36.40;;;;;;;1.72;84.88;98869.35;130118;1257;114681;-59
2023/01/09 04:21:15;;;;;;;63.70;35.60;;;;;;;1.72;85.18;98867.73;129922;1276;115033;-59
2023/01/09 04:24:18;;;;;;;59.30;34.30;;;;;;;1.73;84.90;98863.48;129972;1260;114723;-59
2023/01/09 04:27:20;;;;;;;68.00;35.20;;;;;;;1.74;85.23;98865.05;129959;1253;114730;-59
2023/01/09 04:30:22;;;;;;;63.70;34.30;;;;;;;1.74;85.02;98865.39;130028;1276;115308;-59
2023/01/09 04:33:25;;;;;;;60.20;33.10;;;;;;;1.73;85.23;98869.98;130013;1272;114745;-59
2023/01/09 04:36:27;;;;;;;66.80;33.70;;;;;;;1.73;85.29;98871.75;129868;1259;114697;-59
2023/01/09 04:39:29;;;;;;;60.10;32.50;;;;;;;1.73;85.09;98864.55;130115;1276;114697;-58
2023/01/09 04:42:31;;;;;;;60.30;34.80;;;;;;;1.75;85.23;98857.77;129917;1270;114815;-59
2023/01/09 04:45:34;;;;;;;64.40;34.40;;;;;;;1.76;85.13;98852.45;130021;1276;114779;-58
2023/01/09 04:48:36;;;;;;;52.80;31.10;;;;;;;1.78;85.31;98847.27;130102;1273;114693;-59
2023/01/09 04:51:39;;;;;;;63.60;32.40;;;;;;;1.79;85.48;98850.05;129762;1276;115255;-59
2023/01/09 04:54:41;;;;;;;58.00;31.00;;;;;;;1.82;85.57;98843.45;130101;1274;114719;-60
2023/01/09 04:57:44;;;;;;;59.60;31.90;;;;;;;1.85;85.82;98841.55;130016;1274;115304;-59
2023/01/09 05:00:46;;;;;;;52.40;30.90;;;;;;;1.87;85.84;98828.10;130160;1276;114778;-59
2023/01/09 05:03:48;;;;;;;60.50;34.90;;;;;;;1.90;85.64;98828.16;130035;1276;114835;-59
2023/01/09 05:06:50;;;;;;;58.30;32.60;;;;;;;1.94;85.78;98830.67;130085;1276;114707;-59
2023/01/09 05:09:53;;;;;;;62.90;33.80;;;;;;;1.96;85.73;98830.23;130071;1274;114695;-59
2023/01/09 05:12:55;;;;;;;58.80;30.80;;;;;;;1.98;85.77;98832.27;130105;1258;114789;-60
2023/01/09 05:15:57;;;;;;;55.40;30.00;;;;;;;1.99;85.49;98828.55;129647;1276;114754;-59
2023/01/09 05:19:00;;;;;;;60.40;30.90;;;;;;;1.99;85.93;98827.49;129921;1276;114753;-60
2023/01/09 05:22:02;;;;;;;62.70;32.60;;;;;;;1.99;85.55;98827.34;130045;1274;114710;-60
2023/01/09 05:25:05;;;;;;;51.90;30.70;;;;;;;1.99;85.43;98828.20;130024;1276;115176;-60
2023/01/09 05:28:08;;;;;;;56.50;30.90;;;;;;;1.99;85.54;98820.98;130015;1259;128936;-60
2023/01/09 05:31:10;;;;;;;54.70;32.30;;;;;;;2.01;85.48;98818.09;129958;1258;114776;-60
2023/01/09 05:34:12;;;;;;;52.10;30.70;;;;;;;2.02;85.54;98812.05;130123;1259;114783;-60
2023/01/09 05:37:15;;;;;;;51.60;29.90;;;;;;;2.02;85.64;98804.67;130287;1274;114697;-58
2023/01/09 05:40:21;;;;;;;51.50;29.00;;;;;;;2.01;85.59;98803.81;129678;1258;114794;-58
2023/01/09 05:43:23;;;;;;;56.40;31.40;;;;;;;2.00;85.36;98808.42;129686;1262;114765;-59
2023/01/09 05:46:26;;;;;;;54.70;29.40;;;;;;;1.99;85.59;98807.94;130014;1276;114711;-59
2023/01/09 05:49:28;;;;;;;51.70;27.20;;;;;;;1.98;85.19;98802.70;129966;1276;115098;-59
2023/01/09 05:52:31;;;;;;;52.80;29.50;;;;;;;1.97;85.60;98790.23;130045;1276;114768;-60
2023/01/09 05:55:33;;;;;;;51.80;28.50;;;;;;;1.96;85.42;98790.98;129976;1257;114720;-59
2023/01/09 05:58:36;;;;;;;51.60;29.90;;;;;;;1.96;85.51;98782.51;129959;1256;114783;-59
2023/01/09 06:01:38;;;;;;;54.30;30.80;;;;;;;1.97;85.58;98776.66;129972;1276;114973;-59
2023/01/09 06:04:42;;;;;;;50.30;27.70;;;;;;;2.00;85.54;98776.38;129934;1264;114778;-59
2023/01/09 06:07:45;;;;;;;53.00;28.90;;;;;;;2.02;85.69;98777.02;130000;1276;114700;-59
2023/01/09 06:10:48;;;;;;;53.70;28.00;;;;;;;2.04;85.62;98766.39;129985;1276;114849;-59
2023/01/09 06:13:50;;;;;;;51.60;29.90;;;;;;;2.06;85.73;98768.20;130045;1268;114715;-62
2023/01/09 06:16:52;;;;;;;54.60;29.20;;;;;;;2.10;85.81;98769.48;129911;1259;114695;-59
2023/01/09 06:19:55;;;;;;;46.90;27.50;;;;;;;2.13;85.78;98771.82;129995;1259;115464;-60
2023/01/09 06:22:57;;;;;;;62.40;31.10;;;;;;;2.17;85.48;98777.31;129973;1273;115168;-59
2023/01/09 06:26:00;;;;;;;53.60;28.40;;;;;;;2.21;85.61;98775.19;130071;1276;114768;-59
2023/01/09 06:29:02;;;;;;;52.20;28.80;;;;;;;2.26;85.52;98777.30;129641;1276;115266;-60
2023/01/09 06:32:05;;;;;;;57.10;30.30;;;;;;;2.30;85.57;98772.03;130151;1257;114748;-60
2023/01/09 06:35:08;;;;;;;53.60;31.70;;;;;;;2.33;85.67;98764.16;130135;1256;114692;-60
2023/01/09 06:38:11;;;;;;;54.60;31.60;;;;;;;2.36;85.63;98761.05;130117;1276;114805;-59
2023/01/09 06:41:13;;;;;;;90.30;45.60;;;;;;;2.39;85.73;98762.15;130013;1269;114735;-59
2023/01/09 06:44:16;;;;;;;74.60;42.10;;;;;;;2.43;85.54;98761.30;130027;1258;114805;-59
2023/01/09 06:47:19;;;;;;;71.60;37.80;;;;;;;2.45;85.63;98766.16;129968;1276;115152;-59
2023/01/09 06:50:21;;;;;;;64.60;36.10;;;;;;;2.47;85.61;98770.13;130008;1273;115437;-62
2023/01/09 06:53:23;;;;;;;60.80;33.10;;;;;;;2.48;85.55;98774.82;130029;1258;114692;-60
2023/01/09 06:56:25;;;;;;;61.20;34.00;;;;;;;2.51;85.54;98782.27;129809;1258;115962;-63
2023/01/09 06:59:28;;;;;;;64.40;34.40;;;;;;;2.54;85.44;98774.56;129952;1259;114833;-59
2023/01/09 07:02:30;;;;;;;59.30;33.00;;;;;;;2.55;85.43;98770.50;129956;1276;115386;-61
2023/01/09 07:05:39;;;;;;;59.10;32.80;;;;;;;2.57;85.28;98763.52;129954;1276;114697;-59
2023/01/09 07:08:42;;;;;;;66.00;36.00;;;;;;;2.58;85.58;98758.00;129848;1253;114843;-62
2023/01/09 07:11:44;;;;;;;56.50;33.40;;;;;;;2.59;85.46;98748.11;129945;1257;114713;-59
2023/01/09 07:14:47;;;;;;;57.60;33.40;;;;;;;2.56;85.37;98742.59;129922;1276;114956;-59
2023/01/09 07:17:53;;;;;;;64.60;36.90;;;;;;;2.52;85.54;98741.53;129964;1253;115612;-59
2023/01/09 07:20:56;;;;;;;64.70;36.10;;;;;;;2.53;85.55;98743.09;129991;1276;128777;-59
2023/01/09 07:23:58;;;;;;;65.50;35.90;;;;;;;2.54;85.60;98747.82;129914;1276;114743;-61
2023/01/09 07:27:01;;;;;;;57.90;32.60;;;;;;;2.56;85.59;98756.35;129929;1276;115196;-59
2023/01/09 07:30:05;;;;;;;60.50;31.90;;;;;;;2.61;85.61;98761.98;129994;1266;114989;-59
2023/01/09 07:33:08;;;;;;;56.30;31.80;;;;;;;2.67;85.71;98762.61;129950;1276;114777;-60
2023/01/09 07:36:10;;;;;;;61.90;35.00;;;;;;;2.72;85.80;98757.25;130069;1276;115374;-59
2023/01/09 07:39:13;;;;;;;61.60;33.30;;;;;;;2.77;85.88;98758.48;130093;1276;114964;-59
2023/01/09 07:42:15;;;;;;;59.60;33.30;;;;;;;2.80;85.78;98753.05;130111;1260;115171;-59
2023/01/09 07:45:18;;;;;;;60.20;32.00;;;;;;;2.84;85.65;98749.88;130018;1273;114767;-60
2023/01/09 07:48:20;;;;;;;58.80;30.90;;;;;;;2.88;85.59;98748.67;130077;1257;115152;-60
2023/01/09 07:51:23;;;;;;;57.40;31.10;;;;;;;2.90;85.63;98750.66;130032;1276;114707;-59
2023/01/09 07:54:25;;;;;;;51.50;29.10;;;;;;;2.95;85.77;98749.42;130019;1276;114707;-59
2023/01/09 07:57:29;;;;;;;62.30;34.20;;;;;;;2.98;85.66;98745.04;130183;1276;114780;-60
2023/01/09 08:00:31;;;;;;;58.60;30.60;;;;;;;3.01;85.62;98743.16;130114;1268;114785;-60
2023/01/09 08:03:34;;;;;;;52.90;29.50;;;;;;;3.06;85.57;98734.67;130137;1266;115084;-61
2023/01/09 08:06:36;;;;;;;51.80;30.10;;;;;;;3.12;85.66;98736.33;130295;1257;114778;-60
2023/01/09 08:09:39;;;;;;;53.40;30.60;;;;;;;3.16;85.58;98733.66;130095;1254;114850;-60
2023/01/09 08:12:42;;;;;;;57.30;30.00;;;;;;;3.20;85.58;98732.08;130086;1257;114724;-61
2023/01/09 08:15:44;;;;;;;60.70;32.00;;;;;;;3.25;85.74;98738.59;130034;1276;114707;-60
2023/01/09 08:18:47;;;;;;;54.30;30.90;;;;;;;3.29;85.65;98732.37;129949;1276;114758;-59
2023/01/09 08:21:49;;;;;;;58.00;31.90;;;;;;;3.34;85.71;98733.05;130095;1259;114707;-59
2023/01/09 08:24:51;;;;;;;52.70;30.30;;;;;;;3.39;85.62;98731.27;129662;1261;114760;-59
2023/01/09 08:27:54;;;;;;;54.70;31.70;;;;;;;3.43;85.71;98731.23;130046;1275;114701;-68
2023/01/09 08:30:56;;;;;;;60.30;30.80;;;;;;;3.50;85.80;98733.55;130243;1269;114699;-69
2023/01/09 08:33:58;;;;;;;57.40;32.20;;;;;;;3.58;85.96;98727.36;130306;1254;114903;-68
2023/01/09 08:37:00;;;;;;;52.80;30.50;;;;;;;3.66;85.89;98724.90;130287;1276;114718;-70
2023/01/09 08:40:03;;;;;;;55.40;33.20;;;;;;;3.73;85.79;98729.88;130328;1259;114766;-70
2023/01/09 08:49:47;;;;;;;58.70;32.10;;;;;;;3.99;86.12;98731.98;130305;1265;114787;-70
2023/01/09 08:52:49;;;;;;;56.40;32.40;;;;;;;4.06;85.86;98728.32;130209;1259;114706;-69
2023/01/09 08:55:52;;;;;;;62.50;33.80;;;;;;;4.12;85.82;98718.65;130279;1276;114711;-70
2023/01/09 08:58:54;;;;;;;61.20;33.70;;;;;;;4.18;85.86;98718.52;129952;1276;128793;-69
2023/01/09 09:01:57;;;;;;;56.90;34.50;;;;;;;4.23;85.42;98712.99;130303;1252;114712;-70
2023/01/09 09:04:59;;;;;;;58.30;33.90;;;;;;;4.27;85.57;98714.39;130218;1259;114776;-69
2023/01/09 09:08:02;;;;;;;58.10;33.50;;;;;;;4.31;85.50;98712.95;130270;1271;114696;-69
2023/01/09 09:11:04;;;;;;;59.60;34.00;;;;;;;4.35;85.52;98719.13;130214;1269;114723;-70
2023/01/09 09:17:28;;;;;;;61.00;34.00;;;;;;;4.43;85.37;98712.54;130331;1257;128784;-73
2023/01/09 09:20:36;;;;;;;63.90;36.60;;;;;;;4.47;85.26;98710.05;130268;1256;115144;-73
2023/01/09 09:23:38;;;;;;;64.10;37.60;;;;;;;4.53;85.04;98713.63;130454;1266;115314;-70
2023/01/09 09:26:40;;;;;;;60.60;36.90;;;;;;;4.60;85.31;98712.73;130282;1257;115330;-73
2023/01/09 09:29:42;;;;;;;62.70;34.60;;;;;;;4.69;85.40;98709.83;130312;1276;114768;-74
2023/01/09 09:32:45;;;;;;;70.70;43.90;;;;;;;4.79;85.80;98714.65;130265;1266;115150;-69
2023/01/09 09:35:47;;;;;;;88.70;57.70;;;;;;;4.88;85.75;98719.80;130270;1253;114781;-69
2023/01/09 09:38:49;;;;;;;84.80;55.20;;;;;;;4.99;85.80;98718.18;130261;1276;114694;-68
2023/01/09 09:45:40;;;;;;;65.90;40.70;;;;;;;5.18;85.46;98726.39;130403;1275;114790;-70
2023/01/09 09:48:49;;;;;;;68.60;40.40;;;;;;;5.25;85.62;98726.55;130396;1268;115193;-69
2023/01/09 09:51:54;;;;;;;65.10;36.30;;;;;;;5.34;85.68;98727.19;130392;1261;114682;-73
2023/01/09 09:54:57;;;;;;;;;;;;;;;5.39;85.36;98724.39;130275;1256;128603;-72
2023/01/09 09:58:02;;;;;;;73.80;47.80;;;;;;;5.45;85.63;98724.96;130285;1266;114802;-72
2023/01/09 10:01:05;;;;;;;63.60;38.80;;;;;;;5.51;85.46;98721.45;130659;1259;114714;-72
2023/01/09 10:04:14;;;;;;;56.70;34.90;;;;;;;5.56;85.51;98722.94;130304;1256;115149;-72
2023/01/09 10:07:21;;;;;;;62.70;36.70;;;;;;;5.60;85.58;98719.21;130468;1257;114764;-72
2023/01/09 10:10:31;;;;;;;69.30;42.00;;;;;;;5.65;85.47;98721.09;130306;1259;128831;-70
2023/01/09 10:17:09;;;;;;;72.30;39.30;;;;;;;5.75;85.28;98720.70;130336;1260;114879;-71
2023/01/09 10:20:23;;;;;;;64.80;37.90;;;;;;;5.82;85.33;98719.23;130513;1269;114715;-71
2023/01/09 10:23:52;;;;;;;67.00;39.50;;;;;;;5.90;85.36;98726.05;130457;1266;114758;-71
2023/01/09 10:26:55;;;;;;;68.90;39.50;;;;;;;6.01;85.42;98723.36;130582;1266;128787;-70
2023/01/09 10:30:37;;;;;;;81.30;46.20;;;;;;;6.08;85.42;98721.35;130513;1269;115171;-70
2023/01/09 10:33:50;;;;;;;73.80;43.60;;;;;;;6.25;85.66;98721.48;130077;1257;114693;-68
2023/01/09 10:37:15;;;;;;;84.10;45.10;;;;;;;6.40;85.58;98720.65;130057;1258;114697;-65
2023/01/09 10:40:29;;;;;;;80.60;48.70;;;;;;;6.51;85.42;98718.05;129746;1263;115065;-65
2023/01/09 10:43:50;;;;;;;88.60;55.20;;;;;;;6.64;85.46;98717.44;130102;1268;128723;-63
2023/01/09 10:46:54;;;;;;;86.70;54.80;;;;;;;6.79;85.48;98714.13;129965;1271;115269;-65
2023/01/09 10:49:58;;;;;;;87.20;53.10;;;;;;;6.88;85.28;98712.48;130021;1258;115170;-64
2023/01/09 10:53:06;;;;;;;63.20;39.50;;;;;;;6.98;85.35;98706.05;129743;1263;114670;-65
2023/01/09 10:56:18;;;;;;;61.30;36.30;;;;;;;7.08;85.37;98698.52;129764;1257;115080;-64
2023/01/09 10:59:22;;;;;;;56.30;33.60;;;;;;;7.19;85.38;98696.47;129884;1259;127875;-61
2023/01/09 11:02:33;;;;;;;53.40;32.40;;;;;;;7.27;85.37;98696.63;129776;1271;115203;-66
2023/01/09 11:05:35;;;;;;;50.40;30.70;;;;;;;7.37;85.19;98697.12;130030;1266;114685;-65
2023/01/09 11:08:40;;;;;;;47.80;29.60;;;;;;;7.45;85.05;98701.77;130010;1259;114829;-66
2023/01/09 11:11:44;;;;;;;76.70;45.20;;;;;;;7.53;85.09;98702.85;130022;1267;114706;-65
2023/01/09 11:14:46;;;;;;;53.60;34.60;;;;;;;7.61;84.91;98700.96;129757;1275;128125;-63
2023/01/09 11:17:50;;;;;;;47.90;32.40;;;;;;;7.67;84.64;98701.30;129966;1263;114696;-65
2023/01/09 11:20:53;;;;;;;51.40;31.80;;;;;;;7.74;84.86;98696.59;129970;1260;114859;-64
2023/01/09 11:23:55;;;;;;;66.10;42.20;;;;;;;7.81;84.70;98694.70;130060;1257;114751;-67
2023/01/09 11:27:22;;;;;;;57.40;38.00;;;;;;;7.89;84.74;98697.58;129952;1275;114791;-64
2023/01/09 11:30:27;;;;;;;72.50;45.70;;;;;;;7.95;84.99;98689.72;129653;1264;128543;-65
2023/01/09 11:33:30;;;;;;;;;;;;;;;8.01;84.74;98686.15;130035;1257;114719;-66
2023/01/09 11:36:33;;;;;;;63.20;39.20;;;;;;;8.07;84.56;98682.40;129647;1261;114876;-67
2023/01/09 11:39:40;;;;;;;60.10;36.70;;;;;;;8.10;84.52;98682.71;130731;1268;114741;-67
2023/01/09 11:43:04;;;;;;;58.10;37.00;;;;;;;8.12;84.64;98682.41;130120;1257;114711;-68
2023/01/09 11:46:10;;;;;;;56.60;36.10;;;;;;;8.15;84.39;98685.77;129721;1276;127532;-67
2023/01/09 11:49:21;;;;;;;45.80;30.10;;;;;;;8.15;84.08;98688.61;129841;1259;115215;-68
2023/01/09 11:52:25;;;;;;;46.00;29.20;;;;;;;8.16;83.95;98687.13;129902;1264;114839;-67
2023/01/09 11:55:27;;;;;;;47.00;30.00;;;;;;;8.18;84.19;98682.38;129975;1261;116457;-69
2023/01/09 11:58:33;;;;;;;46.90;29.00;;;;;;;8.20;84.47;98680.64;130374;1254;114728;-67
2023/01/09 12:01:44;;;;;;;44.40;26.20;;;;;;;8.23;84.25;98683.85;130194;1268;129081;-65
2023/01/09 12:04:54;;;;;;;44.80;27.30;;;;;;;8.25;84.06;98687.08;129961;1257;115268;-66
2023/01/09 12:07:56;;;;;;;38.90;25.20;;;;;;;8.27;84.34;98690.69;129935;1269;115322;-65
2023/01/09 12:11:26;;;;;;;41.40;27.30;;;;;;;8.30;84.16;98692.94;129928;1273;114774;-65
2023/01/09 12:14:54;;;;;;;41.70;26.10;;;;;;;8.32;84.17;98695.00;129623;1276;114979;-66
2023/01/09 12:18:11;;;;;;;51.60;35.60;;;;;;;8.32;84.15;98698.64;129669;1276;128755;-64
2023/01/09 12:21:26;;;;;;;51.60;34.30;;;;;;;8.32;83.77;98698.51;129885;1273;115346;-65
2023/01/09 12:24:35;;;;;;;55.70;38.10;;;;;;;8.31;83.74;98695.23;129974;1254;114734;-67
2023/01/09 12:27:46;;;;;;;50.30;34.70;;;;;;;8.29;83.73;98694.47;129836;1254;114700;-64
2023/01/09 12:31:07;;;;;;;51.60;33.00;;;;;;;8.28;83.63;98700.77;129920;1254;114694;-66
2023/01/09 12:34:34;;;;;;;49.00;30.50;;;;;;;8.27;84.19;98701.15;129894;1276;128771;-64
2023/01/09 12:38:15;;;;;;;54.20;31.70;;;;;;;8.28;83.81;98703.59;129766;1276;114708;-63
2023/01/09 12:41:46;;;;;;;47.80;28.80;;;;;;;8.27;83.81;98700.98;129958;1276;114704;-64
2023/01/09 12:45:15;;;;;;;40.50;25.10;;;;;;;8.27;83.73;98711.27;129708;1261;114812;-64
2023/01/09 12:48:39;;;;;;;31.60;21.70;;;;;;;8.28;84.09;98712.34;129918;1268;114694;-64
2023/01/09 12:52:06;;;;;;;32.30;21.60;;;;;;;8.29;83.74;98720.58;129748;1259;128835;-64
2023/01/09 12:55:18;;;;;;;33.10;21.50;;;;;;;8.29;83.60;98722.74;129906;1276;115188;-64
2023/01/09 12:58:26;;;;;;;29.40;18.50;;;;;;;8.29;83.83;98725.79;129950;1277;115094;-64
2023/01/09 13:01:33;;;;;;;27.40;17.70;;;;;;;8.30;83.82;98726.26;129951;1257;114720;-64
2023/01/09 13:04:44;;;;;;;24.90;14.40;;;;;;;8.29;83.53;98722.90;129613;1261;114741;-64
2023/01/09 13:07:59;;;;;;;21.10;14.40;;;;;;;8.29;83.36;98728.96;129903;1274;128964;-63
2023/01/09 13:11:08;;;;;;;20.90;12.30;;;;;;;8.28;83.45;98733.99;129812;1257;115379;-63
2023/01/09 13:14:15;;;;;;;17.90;12.30;;;;;;;8.26;83.18;98740.35;129929;1269;115270;-63
2023/01/09 13:17:43;;;;;;;18.40;12.10;;;;;;;8.26;83.14;98749.28;129921;1257;116335;-64
2023/01/09 13:20:55;;;;;;;16.40;11.00;;;;;;;8.24;82.68;98756.66;129927;1257;115074;-63
2023/01/09 13:24:27;;;;;;;14.00;8.60;;;;;;;8.19;82.36;98755.76;129948;1260;127907;-63
2023/01/09 13:27:32;;;;;;;12.10;8.10;;;;;;;8.15;82.69;98760.10;129893;1276;116406;-63
2023/01/09 13:30:59;;;;;;;13.30;7.10;;;;;;;8.14;82.71;98757.86;130050;1257;114703;-63
2023/01/09 13:34:04;;;;;;;10.50;7.80;;;;;;;8.15;82.91;98759.39;129658;1258;115405;-64
2023/01/09 13:37:14;;;;;;;;;;;;;;;8.17;82.84;98767.61;130059;1276;114790;-64
2023/01/09 13:40:19;;;;;;;9.30;7.10;;;;;;;8.18;82.83;98771.77;129949;1259;127772;-64
2023/01/09 13:43:21;;;;;;;12.60;7.90;;;;;;;8.21;82.85;98770.21;130045;1257;115148;-65
2023/01/09 13:46:40;;;;;;;11.40;7.50;;;;;;;8.24;82.74;98768.98;130066;1276;114755;-65
2023/01/09 13:49:46;;;;;;;11.80;7.70;;;;;;;8.28;82.59;98769.96;129993;1276;114960;-63
2023/01/09 13:52:49;;;;;;;11.90;7.90;;;;;;;8.31;82.96;98781.27;129639;1261;116252;-63
2023/01/09 13:55:57;;;;;;;17.10;12.30;;;;;;;8.35;82.77;98785.86;130015;1276;114818;-63
2023/01/09 13:59:01;;;;;;;45.90;30.90;;;;;;;8.38;82.81;98796.69;130059;1276;115270;-63
2023/01/09 14:02:33;;;;;;;27.60;18.70;;;;;;;8.41;82.63;98808.75;129721;1260;275936;-63
2023/01/09 14:05:36;;;;;;;26.00;16.20;;;;;;;8.45;82.76;98813.67;130011;1257;114764;-64
2023/01/09 14:08:40;;;;;;;28.10;18.30;;;;;;;8.46;82.59;98826.96;130011;1276;115069;-64
2023/01/09 14:11:43;;;;;;;22.70;15.50;;;;;;;8.45;82.49;98829.17;129964;1268;115360;-64
2023/01/09 14:14:45;;;;;;;29.70;19.10;;;;;;;8.43;82.56;98831.61;130001;1276;114741;-66
2023/01/09 14:17:48;;;;;;;21.30;13.30;;;;;;;8.41;82.45;98839.20;129918;1276;114807;-64
2023/01/09 14:20:57;;;;;;;16.90;11.30;;;;;;;8.38;82.06;98839.54;130037;1263;114746;-64
2023/01/09 14:24:02;;;;;;;15.40;10.60;;;;;;;8.36;82.34;98848.96;129991;1260;115071;-64
2023/01/09 14:27:04;;;;;;;20.30;10.20;;;;;;;8.32;82.37;98854.86;129937;1276;127512;-65
2023/01/09 14:30:51;;;;;;;18.50;11.70;;;;;;;8.28;82.13;98857.95;130007;1276;114798;-65
2023/01/09 14:34:34;;;;;;;23.80;14.60;;;;;;;8.25;81.90;98867.27;129511;1260;114995;-66